Asaph, Pennsylvania
Current Conditions -  °F | °C
As of 3:15 AM on Thursday 29 Jan 2015 (Local Time) from KN38 Reporting Station
Clear Clear  
Wind Chill: -6°   Ceiling: Unl
Heat Index:   Visibility: 10mi
Dew Point:   Wind: 6mph
Humidity: 78%   Direction: 210°SSW
Pressure: 30.21"   Gusts: NA
Location:  41.7308°N, 77.349°W
Report Text: KN38 290815Z AUTO 21005KT 10SM CLR M15/M18 A3021 RMK AO2
Loading
Personal Weather Stations






























Interactive Weather Map New forecast layout! Learn more

10-Day Weather Forecast

Advertisements
Track Severe Weather on mobile